Time;durP1;ratioP1;P1;durP2;ratioP2;P2;SDS_P1;SDS_P2;PMS_P1;PMS_P2;Temp;Humidity;BMP_temperature;BMP_pressure;BME280_temperature;BME280_humidity;BME280_pressure;Samples;Min_cycle;Max_cycle;Signal;HPM_P1;HPM_P2
2023/09/24 11:42:42;;;;;;;2.10;1.30;;;23.70;54.30;;;;;;215336;1298;22646;-55
2023/09/24 12:00:54;;;;;;;4.10;1.30;;;24.10;53.40;;;;;;215251;1304;22677;-60
2023/09/24 12:06:09;;;;;;;6.60;1.50;;;24.00;52.80;;;;;;220083;1282;22350;31
2023/09/24 12:11:13;;;;;;;3.60;1.40;;;23.70;52.30;;;;;;215810;1282;24305;-57
2023/09/24 12:16:16;;;;;;;3.70;1.40;;;23.90;52.60;;;;;;217487;1302;24213;-57
2023/09/24 12:21:20;;;;;;;8.10;1.20;;;23.80;53.10;;;;;;215146;1302;25087;-56
2023/09/24 12:26:26;;;;;;;1.70;1.00;;;23.80;52.30;;;;;;215464;1308;22602;-59
2023/09/24 12:31:35;;;;;;;2.30;1.40;;;23.80;53.10;;;;;;214908;1307;22660;-60
2023/09/24 12:36:41;;;;;;;7.20;2.00;;;23.80;53.80;;;;;;214811;1304;22562;-58
2023/09/24 12:41:50;;;;;;;1.90;1.20;;;23.90;54.00;;;;;;214933;1304;22562;-58
2023/09/24 12:46:56;;;;;;;2.60;1.30;;;23.90;54.10;;;;;;215269;1306;22568;-57
2023/09/24 12:52:02;;;;;;;2.00;1.20;;;24.10;53.40;;;;;;215373;1306;24352;-57
2023/09/24 12:57:05;;;;;;;2.40;1.40;;;23.90;52.40;;;;;;215158;1302;25569;-61
2023/09/24 13:02:10;;;;;;;5.50;1.50;;;23.40;52.20;;;;;;215114;1308;22559;-64
2023/09/24 13:07:14;;;;;;;5.80;1.40;;;23.10;51.90;;;;;;215312;1302;25265;-64
2023/09/24 13:12:19;;;;;;;8.10;1.40;;;23.10;52.40;;;;;;214990;1304;22579;-58
2023/09/24 13:17:23;;;;;;;5.20;1.50;;;23.30;52.40;;;;;;215041;1304;22578;-59
2023/09/24 13:22:26;;;;;;;6.90;1.40;;;23.60;52.10;;;;;;214640;1306;23957;-58
2023/09/24 13:27:30;;;;;;;1.70;1.20;;;23.50;51.90;;;;;;214757;1304;25326;-60
2023/09/24 13:32:36;;;;;;;2.20;1.20;;;23.20;51.70;;;;;;214814;1304;25402;-59
2023/09/24 13:37:49;;;;;;;2.60;1.10;;;23.00;51.30;;;;;;214832;1304;24474;-61
2023/09/24 13:42:59;;;;;;;3.50;1.20;;;22.90;51.30;;;;;;214971;1304;25329;-59
2023/09/24 13:48:03;;;;;;;2.10;1.10;;;22.80;51.50;;;;;;214928;1310;23944;-59
2023/09/24 13:53:08;;;;;;;2.30;1.00;;;22.70;51.70;;;;;;214946;1305;24452;-60
2023/09/24 13:58:13;;;;;;;1.90;1.00;;;22.80;52.00;;;;;;214889;1297;26134;-60
2023/09/24 14:03:21;;;;;;;1.80;1.00;;;22.80;52.30;;;;;;214904;1308;22569;-58
2023/09/24 14:13:57;;;;;;;5.70;1.70;;;22.80;52.40;;;;;;214958;1304;23767;-58
2023/09/24 14:19:02;;;;;;;2.20;1.50;;;22.60;52.00;;;;;;215786;1301;24245;-60
2023/09/24 14:24:07;;;;;;;5.90;1.30;;;22.60;52.00;;;;;;215743;1305;22604;-60
2023/09/24 14:29:12;;;;;;;1.50;1.10;;;22.80;52.50;;;;;;215512;1305;22571;-60
2023/09/24 14:34:16;;;;;;;3.60;1.30;;;22.80;52.30;;;;;;215635;1299;24257;-60
2023/09/24 14:39:20;;;;;;;1.80;1.20;;;22.70;52.30;;;;;;215499;1298;25369;-59
2023/09/24 14:44:25;;;;;;;1.60;1.10;;;22.50;52.80;;;;;;215641;1304;22702;-62
2023/09/24 14:49:31;;;;;;;4.00;1.20;;;22.50;52.80;;;;;;215544;1301;22668;-60
2023/09/24 14:54:35;;;;;;;3.70;1.10;;;22.40;52.20;;;;;;215415;1304;25310;-60
2023/09/24 14:59:38;;;;;;;2.20;1.00;;;22.40;53.10;;;;;;215506;1304;24234;-60
2023/09/24 15:04:43;;;;;;;1.20;1.10;;;22.50;52.90;;;;;;215554;1301;191030;-60
2023/09/24 15:09:47;;;;;;;3.50;1.20;;;22.60;52.90;;;;;;215325;1292;25291;-60
2023/09/24 15:14:53;;;;;;;2.10;1.00;;;22.60;52.90;;;;;;215419;1301;24291;-58
2023/09/24 15:19:57;;;;;;;1.60;1.00;;;22.60;52.90;;;;;;215246;1307;22572;-60
2023/09/24 15:25:01;;;;;;;3.50;1.20;;;22.50;53.30;;;;;;215289;1304;22554;-59
2023/09/24 15:30:06;;;;;;;5.00;1.30;;;22.40;53.40;;;;;;215742;1301;22585;-60
2023/09/24 15:35:11;;;;;;;2.00;1.10;;;22.20;53.40;;;;;;215427;1307;24896;-61
2023/09/24 15:40:16;;;;;;;2.40;1.00;;;22.20;53.60;;;;;;215583;1298;24318;-59
2023/09/24 15:45:24;;;;;;;3.30;1.10;;;22.20;53.00;;;;;;215468;1299;25345;-59
2023/09/24 15:50:33;;;;;;;2.40;1.00;;;22.20;53.30;;;;;;215388;1299;22562;-61
2023/09/24 15:55:38;;;;;;;1.80;1.00;;;22.30;53.30;;;;;;215695;1298;22545;-60
2023/09/24 16:00:45;;;;;;;1.40;0.90;;;22.30;53.40;;;;;;215822;1304;22559;-61
2023/09/24 16:05:49;;;;;;;0.90;0.70;;;22.30;54.10;;;;;;215810;1301;24956;-57
2023/09/24 16:10:53;;;;;;;2.10;1.30;;;22.30;53.50;;;;;;215983;1291;24310;-60
2023/09/24 16:15:59;;;;;;;2.30;1.10;;;22.30;53.10;;;;;;216017;1301;25287;-60
2023/09/24 16:21:03;;;;;;;2.00;1.00;;;22.30;53.00;;;;;;215860;1298;23294;-59
2023/09/24 16:26:08;;;;;;;2.60;0.70;;;22.30;53.20;;;;;;216216;1299;25490;-61
2023/09/24 16:31:12;;;;;;;3.20;1.20;;;22.30;53.30;;;;;;215938;1298;25300;-58
2023/09/24 16:36:16;;;;;;;1.60;1.10;;;22.30;53.70;;;;;;215844;1303;22730;-59
2023/09/24 16:41:21;;;;;;;1.20;0.70;;;22.30;53.30;;;;;;215903;1304;22563;-60
2023/09/24 16:46:26;;;;;;;1.50;1.10;;;22.40;53.80;;;;;;215856;1298;22566;-59
2023/09/24 16:51:30;;;;;;;1.60;1.10;;;22.40;53.50;;;;;;215759;1302;23075;-59
2023/09/24 16:56:35;;;;;;;1.50;0.90;;;22.40;53.60;;;;;;215785;1302;25301;-60
2023/09/24 17:01:40;;;;;;;2.00;0.90;;;22.40;53.70;;;;;;215809;1298;22579;-60
2023/09/24 17:06:44;;;;;;;2.60;1.50;;;22.30;54.00;;;;;;216064;1299;22628;-60
2023/09/24 17:11:49;;;;;;;1.30;1.20;;;22.30;54.10;;;;;;215559;1303;22566;-59
2023/09/24 17:16:58;;;;;;;6.20;1.40;;;22.30;53.60;;;;;;215405;1295;22792;-59
2023/09/24 17:22:03;;;;;;;1.60;1.40;;;22.20;54.10;;;;;;215745;1299;25582;-59
2023/09/24 17:27:11;;;;;;;3.00;1.40;;;22.30;54.60;;;;;;215745;1302;22588;-60
2023/09/24 17:32:23;;;;;;;12.00;2.40;;;22.40;54.70;;;;;;215750;1298;22548;-59
2023/09/24 17:37:31;;;;;;;4.10;1.60;;;22.60;55.90;;;;;;215724;1297;25494;-57
2023/09/24 17:42:43;;;;;;;7.20;1.80;;;22.90;57.50;;;;;;215559;1298;25290;-60
2023/09/24 17:47:54;;;;;;;6.60;2.40;;;22.80;56.70;;;;;;215926;1304;25380;-58
2023/09/24 17:53:00;;;;;;;4.70;1.30;;;23.00;58.50;;;;;;215985;1298;25332;-59
2023/09/24 17:58:07;;;;;;;7.00;1.70;;;23.20;58.30;;;;;;215702;1299;24337;-61
2023/09/24 18:03:16;;;;;;;2.70;1.30;;;23.20;58.30;;;;;;215612;1295;25683;-59
2023/09/24 18:08:22;;;;;;;5.10;1.40;;;23.20;58.00;;;;;;214749;1307;25344;-56
2023/09/24 18:13:28;;;;;;;5.40;1.10;;;23.20;58.20;;;;;;214790;1294;25452;-60
2023/09/24 18:18:36;;;;;;;10.60;2.30;;;23.00;58.30;;;;;;215039;1294;22566;-56
2023/09/24 18:23:41;;;;;;;8.00;1.80;;;23.10;60.60;;;;;;215287;1304;27775;-55
2023/09/24 18:28:47;;;;;;;6.10;1.70;;;23.20;60.70;;;;;;215270;1300;24102;-53
2023/09/24 18:33:53;;;;;;;7.20;1.70;;;23.10;60.00;;;;;;215478;1304;24277;-55
2023/09/24 18:39:03;;;;;;;3.90;1.80;;;23.20;59.30;;;;;;215654;1298;25498;-56
2023/09/24 18:44:25;;;;;;;7.60;1.80;;;23.30;59.70;;;;;;216177;1295;24265;-56
2023/09/24 18:49:33;;;;;;;6.70;2.30;;;23.30;59.50;;;;;;216174;1299;24247;-55
2023/09/24 18:54:41;;;;;;;8.90;1.60;;;23.30;61.20;;;;;;216090;1298;25289;-56
2023/09/24 18:59:51;;;;;;;8.10;1.80;;;23.30;61.40;;;;;;215536;1301;24315;-55
2023/09/24 19:05:01;;;;;;;9.00;1.70;;;23.20;61.30;;;;;;218096;1299;25614;-51
2023/09/24 19:10:13;;;;;;;6.50;1.70;;;23.20;61.00;;;;;;215504;1298;22552;-53
2023/09/24 19:15:23;;;;;;;7.50;1.40;;;23.20;61.30;;;;;;215850;1303;24588;-52
2023/09/24 19:20:36;;;;;;;2.90;1.60;;;23.10;61.10;;;;;;215945;1304;24691;-54
2023/09/24 19:25:46;;;;;;;3.40;1.40;;;23.10;60.60;;;;;;215982;1302;24041;-54
2023/09/24 19:30:52;;;;;;;5.00;1.70;;;23.00;60.30;;;;;;216029;1295;22693;-53
2023/09/24 19:36:05;;;;;;;4.00;1.80;;;23.00;60.90;;;;;;216059;1301;25383;-50
2023/09/24 19:41:13;;;;;;;8.90;1.60;;;23.00;60.80;;;;;;216253;1301;22577;-52
2023/09/24 19:46:19;;;;;;;7.20;1.60;;;23.00;61.30;;;;;;216510;1301;22575;-52
2023/09/24 19:51:27;;;;;;;4.30;1.50;;;23.10;62.00;;;;;;216168;1301;22678;-52
2023/09/24 19:56:33;;;;;;;5.50;1.70;;;23.00;61.80;;;;;;216172;1299;22568;-51
2023/09/24 20:01:37;;;;;;;8.30;1.40;;;23.00;61.80;;;;;;216496;1302;24347;-50
2023/09/24 20:06:41;;;;;;;5.50;1.80;;;23.10;61.60;;;;;;216252;1297;25701;-52
2023/09/24 20:11:46;;;;;;;5.80;1.80;;;23.00;61.60;;;;;;216113;1303;22677;-52
2023/09/24 20:16:51;;;;;;;3.70;1.90;;;23.00;62.50;;;;;;216285;1301;22943;-50
2023/09/24 20:21:55;;;;;;;3.40;1.40;;;23.10;61.80;;;;;;216204;1301;22779;-54
2023/09/24 20:26:58;;;;;;;2.20;1.30;;;23.10;61.10;;;;;;216612;1295;22678;-49
2023/09/24 20:32:03;;;;;;;1.50;1.40;;;23.10;61.30;;;;;;216446;1301;22558;-49
2023/09/24 20:37:07;;;;;;;4.10;1.60;;;22.90;61.20;;;;;;216716;1301;26734;-53
2023/09/24 20:42:11;;;;;;;6.60;1.90;;;22.90;61.10;;;;;;216621;1296;22560;-51
2023/09/24 20:47:19;;;;;;;6.40;1.70;;;22.90;61.80;;;;;;216397;1296;25396;-53
2023/09/24 20:52:22;;;;;;;2.60;1.60;;;23.00;61.70;;;;;;216603;1301;25304;-53
2023/09/24 20:57:25;;;;;;;4.40;2.00;;;23.10;62.00;;;;;;216552;1298;22617;-53
2023/09/24 21:02:28;;;;;;;3.40;1.70;;;23.00;62.20;;;;;;216428;1295;22666;-51
2023/09/24 21:07:33;;;;;;;3.10;1.50;;;22.90;62.60;;;;;;216548;1298;22617;-48
2023/09/24 21:12:36;;;;;;;2.60;1.70;;;22.90;61.90;;;;;;216409;1296;24328;-53
2023/09/24 21:17:40;;;;;;;5.20;1.50;;;22.90;61.70;;;;;;216512;1289;23136;-50
2023/09/24 21:22:43;;;;;;;7.80;1.50;;;22.90;61.80;;;;;;216325;1295;22677;-53
2023/09/24 21:27:46;;;;;;;4.40;2.30;;;22.80;61.70;;;;;;216459;1301;25417;-50
2023/09/24 21:32:49;;;;;;;3.40;1.60;;;22.80;61.80;;;;;;216048;1295;22581;-51
2023/09/24 21:37:52;;;;;;;2.00;1.50;;;22.90;61.50;;;;;;215970;1291;22676;-56
2023/09/24 21:42:55;;;;;;;2.40;1.60;;;22.90;61.50;;;;;;216092;1295;22732;-54
2023/09/24 21:47:58;;;;;;;4.20;1.60;;;22.80;61.60;;;;;;216101;1298;22558;-57
2023/09/24 21:53:02;;;;;;;3.60;1.40;;;22.80;61.60;;;;;;216687;1298;25432;-56
2023/09/24 21:58:04;;;;;;;3.40;1.70;;;22.80;61.20;;;;;;216548;1302;23969;-55
2023/09/24 22:03:08;;;;;;;4.10;2.20;;;22.80;61.10;;;;;;216479;1298;23928;-56
2023/09/24 22:08:12;;;;;;;1.70;1.60;;;22.80;61.10;;;;;;216567;1295;24260;-56
2023/09/24 22:13:14;;;;;;;2.90;1.60;;;22.80;61.00;;;;;;216219;1295;24260;-55
2023/09/24 22:18:18;;;;;;;1.80;1.10;;;22.80;61.20;;;;;;216390;1298;25389;-55
2023/09/24 22:23:20;;;;;;;1.80;1.50;;;22.70;61.30;;;;;;216348;1298;24320;-57
2023/09/24 22:28:24;;;;;;;1.90;1.70;;;22.70;61.40;;;;;;216426;1295;22568;-58
2023/09/24 22:33:27;;;;;;;7.00;1.50;;;22.70;61.10;;;;;;216537;1295;24003;-61
2023/09/24 22:38:30;;;;;;;4.60;1.60;;;22.80;61.30;;;;;;216609;1297;22689;-61
2023/09/24 22:43:32;;;;;;;4.90;1.50;;;22.80;61.60;;;;;;216411;1301;22687;-61
2023/09/24 22:48:35;;;;;;;2.80;1.40;;;22.80;61.70;;;;;;215952;1298;22593;-62
2023/09/24 22:53:38;;;;;;;1.70;1.50;;;22.80;61.60;;;;;;216053;1298;22677;-61
2023/09/24 22:58:41;;;;;;;3.40;1.40;;;22.80;61.50;;;;;;216373;1296;24902;-62
2023/09/24 23:03:43;;;;;;;5.50;1.50;;;22.70;61.70;;;;;;215972;1301;24161;-62
2023/09/24 23:08:46;;;;;;;6.50;1.40;;;22.70;61.60;;;;;;216232;1292;23971;-61
2023/09/24 23:13:49;;;;;;;1.70;1.40;;;22.70;61.60;;;;;;216454;1296;22669;-61
2023/09/24 23:18:53;;;;;;;4.20;1.50;;;22.70;61.70;;;;;;216443;1301;22576;-61
2023/09/24 23:23:56;;;;;;;1.80;1.40;;;22.60;61.70;;;;;;216777;1295;24302;-62
2023/09/24 23:29:00;;;;;;;2.00;1.60;;;22.60;61.70;;;;;;216169;1295;22559;-62
2023/09/24 23:34:03;;;;;;;1.80;1.50;;;22.60;61.70;;;;;;216398;1298;22557;-61
2023/09/24 23:39:12;;;;;;;3.50;1.50;;;22.60;61.80;;;;;;216477;1297;22689;-62
2023/09/24 23:44:15;;;;;;;3.60;1.80;;;22.60;62.00;;;;;;216318;1288;23193;-63
2023/09/24 23:49:20;;;;;;;1.90;1.30;;;22.60;61.80;;;;;;216317;1294;22687;-61
2023/09/24 23:54:27;;;;;;;1.00;1.00;;;22.60;61.60;;;;;;216286;1301;23999;-62
2023/09/24 23:59:30;;;;;;;1.80;1.50;;;22.60;61.70;;;;;;216442;1300;25352;-63
